LICB Airport Information

Runway Information
Runway 05 Length 8070 ft width 148 ft
Elevation 0 ft Threshold 0 ft Heading 0
Runway 23 Length 8070 ft Width 148 ft
Elevation 0 ft Threshold 0 ft Heading 0
Airport Frequencies
Airport Navaids
Airport Weather Information & NOTAM
ADDS - METARS form results

(2026 UTC 18 July 2019)
Data provider http://aviationweather.gov/metar/data/
 
METAR text: LICB 181950Z VRB02KT CAVOK 22/17 Q1015
Conditions at: LICB (COMISO , IT) observed 1950 UTC 18 July 2019
Temperature: 22.0°C (72°F)
Dewpoint: 17.0°C (63°F) [RH = 73%]
Pressure (altimeter): 29.97 inches Hg (1015.0 mb)
Winds: variable direction winds at 2 MPH (2 knots; 1.0 m/s)
Visibility: 6 or more miles (10+ km)
Ceiling: ceiling and visibility are OK
Clouds: unknown
Weather: no significant weather observed at this time

Forecast for: LICB (COMISO , IT)
Text: TAF LICB 182000Z 1821/1906 VRB04KT CAVOK
Forecast period: 2100 UTC 18 July 2019 to 0600 UTC 19 July 2019
Forecast type: FROM: standard forecast or significant change
Winds: variable direction winds at 5 MPH (4 knots; 2.1 m/s)
Visibility: 6 or more miles 10+ km)
Ceiling: unknown
Clouds: missing
Weather: NSW  (no significant weather)